Date,TemperatureHighF,TemperatureAvgF,TemperatureLowF,DewpointHighF,DewpointAvgF,DewpointLowF,HumidityHigh,HumidityAvg,HumidityLow,PressureMaxIn,PressureMinIn,WindSpeedMaxMPH,WindSpeedAvgMPH,GustSpeedMaxMPH,PrecipitationSumIn
2013-1-1,20.8,11.2,2.6,17.8,10.4,2.6,100,97,88,30.42,30.29,7,0,9,0.00
2013-1-2,22.2,12.5,4.5,19.2,11.8,4.5,100,97,86,30.40,30.26,6,0,7,0.00
2013-1-3,27.2,14.1,3.6,20.3,12.4,3.6,100,93,73,30.25,30.11,12,1,15,0.00
2013-1-4,31.8,21.4,11.3,24.5,18.8,9.9,98,90,73,30.29,30.18,7,1,11,0.00
2013-1-5,25.8,20.6,14.1,25.1,19.5,14.0,100,95,87,30.20,30.09,7,1,9,0.00
2013-1-6,37.0,26.5,22.2,31.0,25.9,22.2,100,98,73,30.12,30.00,10,2,19,0.02
2013-1-7,43.9,37.5,30.7,39.6,34.7,27.5,100,90,76,30.08,29.92,24,5,36,0.07
2013-1-8,45.4,39.5,32.1,40.9,36.6,32.1,100,90,73,30.13,29.92,31,8,42,0.12
2013-1-9,49.2,39.3,27.2,38.2,32.9,26.2,100,80,55,29.97,29.66,25,11,43,0.00
2013-1-10,27.1,24.9,22.7,26.2,23.7,21.7,100,95,89,29.83,29.75,13,5,19,0.00
2013-1-11,23.5,19.4,10.0,23.5,18.6,10.0,100,97,84,30.10,29.83,12,4,17,0.00
2013-1-12,20.6,11.5,3.6,18.1,10.9,3.6,100,98,86,30.16,30.08,6,0,7,0.04
2013-1-13,20.8,13.1,6.2,17.9,12.5,6.2,100,97,85,30.27,30.15,6,0,7,0.00
2013-1-14,24.2,16.9,6.8,24.1,16.0,6.8,100,96,88,30.37,30.21,7,1,9,0.00
2013-1-15,34.4,25.0,18.0,30.0,23.9,18.0,100,96,83,30.53,30.37,8,2,9,0.00
2013-1-16,39.5,26.5,18.8,29.7,23.2,18.0,99,88,65,30.53,30.44,6,0,7,0.00
2013-1-17,37.6,24.9,15.1,29.5,22.2,14.9,100,90,70,30.46,30.32,7,0,8,0.00
2013-1-18,41.9,26.8,17.5,31.2,22.8,17.1,100,86,57,30.34,30.25,7,1,7,0.00
2013-1-19,42.8,28.2,19.9,30.4,22.3,17.7,91,79,53,30.35,30.29,6,0,7,0.00
2013-1-20,44.9,28.8,19.7,31.3,22.9,17.2,91,79,56,30.38,30.27,9,1,12,0.00
2013-1-21,42.5,27.4,18.5,31.8,22.5,16.3,92,82,61,30.27,30.12,7,1,13,0.00
2013-1-22,40.1,27.0,17.1,30.1,22.7,15.5,95,84,62,30.16,30.00,8,1,12,0.00
2013-1-23,51.0,42.0,24.5,37.7,26.0,20.4,100,56,32,30.04,29.82,39,14,56,0.02
2013-1-24,47.5,40.9,30.8,41.5,37.5,30.8,100,88,75,30.13,30.05,18,4,24,0.01
2013-1-25,44.2,41.9,39.5,41.4,40.1,38.5,98,94,85,30.10,29.85,21,6,25,0.21
2013-1-26,43.0,34.3,27.4,40.6,32.5,27.1,100,94,73,29.91,29.81,18,3,25,0.18
2013-1-27,34.3,29.2,26.7,29.2,27.8,24.9,100,94,77,29.96,29.88,14,4,21,0.00
2013-1-28,31.2,29.2,27.2,30.2,28.8,27.2,100,98,94,29.94,29.87,16,7,23,0.05
2013-2-7,29.5,24.0,16.5,29.5,24.0,16.5,100,100,100,0.00,0.00,8,0,12,0.06
2013-2-8,30.1,23.4,14.9,29.4,23.1,14.9,100,99,95,0.00,0.00,7,0,10,0.09
2013-2-9,35.2,27.7,16.6,32.2,26.2,16.6,100,95,79,0.00,0.00,12,2,18,0.00
2013-2-10,38.2,31.1,24.0,31.5,28.8,23.5,100,92,72,0.00,0.00,10,3,15,0.00
2013-2-11,41.6,31.5,20.2,34.6,28.2,20.2,100,89,63,0.00,0.00,12,3,17,0.00
2013-2-12,41.2,35.7,28.2,37.4,33.9,28.2,100,93,83,0.00,0.00,12,2,15,0.00
2013-2-13,42.1,37.6,33.1,36.7,34.3,31.8,98,88,68,0.00,0.00,20,5,29,0.00
2013-2-14,42.9,37.0,27.9,38.0,34.5,27.6,100,91,78,0.00,0.00,7,1,9,0.00
2013-2-15,54.2,41.3,29.4,41.2,35.2,29.4,100,81,52,0.00,0.00,10,2,15,0.00
2013-2-16,51.4,40.2,28.7,39.6,34.2,27.4,95,80,49,0.00,0.00,17,5,31,0.01
2013-2-17,38.4,30.0,24.5,28.9,25.9,22.7,97,85,61,0.00,0.00,10,3,14,0.00
2013-2-18,45.3,35.3,26.9,30.7,24.2,18.8,100,67,36,0.00,0.00,20,5,27,0.00
2013-2-19,37.0,28.9,19.1,34.1,27.6,19.1,100,95,68,0.00,0.00,7,1,175,0.18
2013-2-20,35.2,28.0,19.6,29.4,25.9,19.6,100,92,69,0.00,0.00,12,2,14,0.00
2013-2-21,35.1,30.0,24.7,30.5,28.4,24.2,100,94,75,0.00,0.00,14,4,20,0.00
2013-2-22,37.3,33.5,28.4,36.3,32.0,27.0,100,94,82,0.00,0.00,22,10,37,0.07
2013-2-23,34.9,29.5,26.0,29.1,25.8,23.6,97,86,71,0.00,0.00,18,9,31,0.00
2013-2-24,40.1,32.2,23.1,27.5,25.0,21.4,93,76,53,0.00,0.00,21,5,28,0.00
2013-2-25,38.5,33.5,26.7,33.4,28.5,23.7,100,83,63,0.00,0.00,22,10,34,0.01
2013-2-26,39.7,31.4,19.5,25.5,23.0,18.5,97,73,48,0.00,0.00,10,4,17,0.00
2013-2-27,47.3,37.1,27.4,32.9,27.3,20.8,89,68,45,0.00,0.00,13,3,15,0.00
2013-2-28,47.9,43.0,37.7,43.0,38.8,31.0,96,85,63,0.00,0.00,13,4,19,0.00
2013-3-1,57.2,48.0,39.1,41.7,39.1,36.8,94,73,47,0.00,0.00,15,6,20,0.00
2013-3-2,54.5,45.5,38.0,44.1,40.0,36.0,96,82,59,0.00,0.00,13,4,18,0.05
2013-3-3,41.1,32.4,23.3,38.6,25.8,18.0,100,78,46,0.00,0.00,16,6,21,0.04
2013-3-4,43.5,31.3,16.5,24.2,18.5,12.3,98,64,31,0.00,0.00,22,7,30,0.00
2013-3-5,50.0,40.6,33.6,39.9,29.5,20.4,100,66,50,0.00,0.00,30,14,39,0.12
2013-3-6,42.6,36.0,29.4,36.3,32.0,27.0,100,86,67,0.00,0.00,23,11,34,0.21
2013-3-7,43.7,34.1,24.3,31.4,26.8,23.1,95,77,46,0.00,0.00,10,4,15,0.00
2013-3-8,43.5,31.6,21.9,31.5,26.9,21.7,100,84,55,0.00,0.00,13,3,18,0.00
2013-3-9,47.4,33.4,21.9,33.0,25.2,21.9,100,76,40,0.00,0.00,13,3,18,0.00
2013-3-10,51.9,37.8,24.8,42.5,29.3,21.4,94,74,39,0.00,0.00,13,2,22,0.01
2013-3-11,45.1,42.1,38.8,42.6,41.0,38.8,100,96,86,0.00,0.00,10,3,15,0.03
2013-3-12,56.2,45.5,36.6,43.0,38.7,35.2,100,79,46,0.00,0.00,15,4,21,0.00
2013-3-13,61.3,49.0,40.4,42.2,35.3,23.6,90,63,25,0.00,0.00,15,2,20,0.00
2013-3-14,62.6,51.7,41.9,40.8,34.1,26.7,73,53,34,0.00,0.00,13,4,17,0.00
2013-3-15,54.2,44.2,35.1,41.1,35.9,27.9,98,75,45,0.00,0.00,12,3,17,0.00
2013-3-16,47.5,38.0,30.3,39.7,35.1,29.9,100,90,59,0.00,0.00,21,5,35,0.01
2013-3-17,38.0,31.5,25.6,30.1,24.2,21.3,99,75,54,0.00,0.00,17,10,29,0.00
2013-3-18,45.6,34.1,25.0,29.2,25.0,17.8,99,73,34,0.00,0.00,14,5,22,0.00
2013-3-19,52.5,38.9,22.3,42.2,25.5,14.7,91,63,27,0.00,0.00,30,9,41,0.01
2013-3-20,52.2,43.5,30.1,42.9,37.5,29.1,100,80,58,0.00,0.00,30,15,45,0.09
2013-3-21,35.4,28.4,23.4,29.6,24.4,19.8,100,85,69,0.00,0.00,15,7,25,0.01
2013-4-2,60.3,52.8,41.8,43.4,40.6,37.1,96,66,43,0.00,0.00,12,4,20,0.01
2013-4-3,61.5,47.5,37.7,45.3,40.6,35.2,100,80,38,0.00,0.00,9,2,14,0.00
2013-4-4,60.0,51.7,43.5,48.7,43.3,38.6,98,75,46,0.00,0.00,26,7,39,0.08
2013-4-5,55.3,47.4,42.4,44.1,40.1,35.1,98,77,47,0.00,0.00,17,8,26,0.04
2013-4-6,49.6,44.1,37.4,43.1,40.4,37.3,100,87,65,0.00,0.00,22,9,33,0.10
2013-4-7,46.9,41.5,32.1,40.2,35.6,28.5,95,80,58,0.00,0.00,28,13,43,0.07
2013-4-8,39.7,34.5,31.4,36.4,32.5,28.5,100,92,79,0.00,0.00,17,8,24,0.00
2013-4-9,42.5,35.5,31.1,35.4,33.5,31.1,100,93,71,0.00,0.00,7,1,9,0.00
2013-4-10,58.3,44.8,35.0,49.6,38.6,32.9,94,80,47,0.00,0.00,22,7,36,0.01
2013-4-11,46.5,37.2,27.9,35.5,31.5,27.4,100,81,56,0.00,0.00,14,4,21,0.00
2013-4-12,58.3,42.3,25.0,35.6,29.7,24.8,100,67,29,0.00,0.00,17,4,26,0.00
2013-4-13,47.0,37.5,31.8,38.5,27.3,20.1,89,67,46,0.00,0.00,26,11,35,0.00
2013-4-14,41.1,33.4,26.2,30.4,24.9,18.3,99,73,43,0.00,0.00,14,5,20,0.00
2013-4-15,38.1,31.5,23.5,34.3,28.8,23.5,100,91,69,0.00,0.00,17,5,25,0.00
2013-4-16,38.1,31.6,24.5,30.2,24.3,19.9,100,77,51,0.00,0.00,22,9,30,0.00
2013-4-17,45.0,32.7,19.3,24.0,19.9,16.7,91,62,36,0.00,0.00,16,5,23,0.00
2013-4-18,52.6,41.1,25.9,43.8,34.0,22.9,98,77,53,0.00,0.00,12,4,18,0.00
2013-4-19,50.5,44.8,42.1,46.2,42.8,39.4,100,93,75,0.00,0.00,21,7,33,0.22
2013-4-20,53.5,44.3,33.2,39.4,35.8,32.0,98,75,46,0.00,0.00,15,8,22,0.00
2013-4-21,52.2,41.6,30.2,41.5,35.2,30.2,100,80,48,0.00,0.00,18,8,29,0.00
2013-4-22,45.2,37.2,25.8,35.8,28.8,22.2,100,75,44,0.00,0.00,16,5,23,0.02
2013-4-23,52.3,37.1,22.2,28.7,23.6,14.8,93,63,24,0.00,0.00,14,3,21,0.00
2013-4-24,60.7,43.1,25.7,34.9,28.1,23.5,93,60,30,0.00,0.00,9,2,17,0.00
2013-4-25,64.4,49.2,31.4,38.5,32.9,26.2,82,56,34,0.00,0.00,16,5,23,0.00
2013-4-26,69.7,54.2,37.3,44.6,37.6,28.8,97,59,22,0.00,0.00,14,4,22,0.00
2013-4-27,69.5,54.6,37.6,39.6,32.9,28.2,79,48,22,0.00,0.00,16,6,25,0.00
2013-4-28,58.8,50.1,41.6,40.5,35.1,29.0,83,58,33,0.00,0.00,18,6,26,0.00
2013-4-29,53.3,47.4,34.8,45.5,33.4,23.7,97,60,34,0.00,0.00,24,10,39,0.03
2013-4-30,42.3,33.6,26.5,27.6,24.2,20.6,93,70,43,0.00,0.00,18,7,26,0.00
2013-5-1,55.4,39.2,18.1,29.3,23.9,17.1,97,60,26,0.00,0.00,10,2,15,0.00
2013-5-2,69.3,50.5,32.0,35.6,27.2,17.0,75,47,14,0.00,0.00,16,2,23,0.00
2013-5-3,63.8,50.4,28.2,39.8,35.5,23.8,86,60,33,0.00,0.00,15,5,24,0.00
2013-5-4,64.5,51.5,35.8,40.8,36.4,33.7,95,60,34,0.00,0.00,20,7,29,0.00
2013-5-5,70.0,53.0,34.0,42.0,36.8,31.1,93,59,24,0.00,0.00,14,4,21,0.00
2013-5-6,74.1,51.8,39.3,42.3,39.0,36.1,91,67,26,0.00,0.00,10,2,17,0.00
2013-5-7,59.0,59.0,59.0,43.3,43.3,43.3,56,56,56,0.00,40.00,0,0,12,0.00
2013-5-8,73.6,65.9,51.1,46.6,43.9,39.7,79,47,30,0.00,0.00,25,4,32,0.00
2013-5-9,77.7,61.3,46.9,48.9,43.2,35.0,91,57,22,0.00,0.00,26,3,34,0.00
2013-5-10,80.4,65.1,45.8,48.5,42.0,32.7,90,50,18,0.00,0.00,16,2,26,0.00
2013-5-11,80.5,67.2,52.7,53.3,46.0,40.3,76,50,24,0.00,0.00,10,2,17,0.00
2013-5-12,79.2,65.6,53.0,55.2,50.5,45.4,91,61,31,0.00,0.00,14,4,22,0.01
2013-5-13,72.8,56.9,42.4,54.7,47.3,37.9,99,73,37,0.00,0.00,18,6,29,0.00
2013-5-14,63.9,48.8,32.1,40.1,36.6,32.1,100,67,33,0.00,0.00,12,3,19,0.00
2013-5-15,64.4,49.1,37.4,46.5,37.7,32.4,99,68,36,0.00,0.00,20,3,27,0.01
2013-5-16,60.5,51.5,44.7,47.8,43.4,37.7,100,78,44,0.00,0.00,13,3,18,0.07
2013-5-17,53.6,47.8,44.3,47.7,45.4,42.5,100,92,72,0.00,0.00,12,4,15,0.07
2013-5-18,52.9,46.4,36.1,45.4,40.9,36.1,100,82,55,0.00,0.00,12,4,18,0.00
2013-5-19,55.6,47.1,39.4,45.9,41.9,38.1,95,83,55,0.00,0.00,14,4,20,0.02
2013-5-20,70.4,53.6,33.9,45.0,39.3,33.9,100,65,28,0.00,0.00,9,3,16,0.00
2013-5-21,64.7,48.2,30.8,47.0,39.8,29.6,100,77,30,0.00,0.00,17,5,27,0.22
2013-5-22,44.3,36.7,31.4,38.4,32.2,25.6,100,85,52,0.00,0.00,20,6,25,0.04
2013-5-23,51.4,40.4,27.0,40.2,34.7,27.0,100,82,54,0.00,0.00,13,2,20,0.05
2013-5-24,53.6,43.8,33.7,43.0,38.9,33.7,100,84,50,0.00,0.00,16,4,21,0.10
2013-5-25,60.4,47.6,34.6,43.2,38.7,34.6,100,75,40,0.00,0.00,9,3,15,0.00
2013-5-26,53.5,46.6,33.2,48.2,44.4,32.5,100,92,72,0.00,0.00,13,2,19,0.10
2013-5-27,52.4,47.0,37.6,48.8,44.1,37.6,100,90,69,0.00,0.00,15,5,28,0.20
2013-5-28,59.0,48.4,41.4,47.3,42.9,39.1,100,84,49,0.00,0.00,14,4,19,0.42
2013-5-29,55.9,49.1,41.3,46.4,42.9,34.7,99,81,46,0.00,0.00,21,7,35,0.29
2013-5-30,55.0,46.8,39.9,43.8,38.4,31.9,100,76,42,0.00,0.00,13,4,22,0.18
2013-5-31,63.1,50.5,38.7,43.4,40.3,34.6,100,72,35,0.00,0.00,10,2,15,0.00
2013-6-1,69.5,55.0,39.1,45.9,42.1,37.5,97,66,32,0.00,0.00,15,4,21,0.00
2013-6-2,61.1,52.1,42.5,46.7,41.8,36.6,97,71,41,0.00,0.00,16,6,24,0.00
2013-6-3,68.1,54.4,37.9,45.8,40.6,29.6,100,65,24,0.00,0.00,15,4,22,0.00
2013-6-4,70.3,58.2,40.8,45.5,40.9,38.1,92,57,32,0.00,0.00,12,3,16,0.00
2013-6-5,77.6,60.9,45.1,48.6,42.4,32.7,93,57,22,0.00,0.00,9,2,14,0.00
2013-6-6,79.3,64.6,49.2,52.8,47.3,41.3,89,58,27,0.00,0.00,13,3,17,0.00
2013-6-7,77.0,62.9,49.3,50.0,45.6,38.4,86,57,31,0.00,0.00,16,5,26,0.00
2013-6-8,77.9,61.8,41.2,48.3,38.9,27.1,94,50,17,0.00,0.00,14,4,21,0.00
2013-6-9,75.7,60.7,45.3,47.0,38.4,27.5,89,49,18,0.00,0.00,15,4,22,0.00
2013-6-10,73.6,56.8,35.3,38.6,28.6,19.4,67,38,13,0.00,0.00,12,3,19,0.00
2013-6-11,63.2,52.0,38.4,43.8,38.0,31.3,89,60,37,0.00,0.00,15,5,28,0.00
2013-6-12,61.3,50.2,42.0,41.0,38.3,33.3,93,67,35,0.00,0.00,15,5,23,0.00
2013-6-13,54.0,46.2,40.2,44.1,39.5,36.5,93,79,52,0.00,0.00,18,6,32,0.02
2013-6-14,67.5,53.2,42.9,43.5,37.6,26.4,96,62,22,0.00,0.00,10,3,18,0.00
2013-6-15,75.6,60.8,42.2,40.7,33.5,24.6,74,42,16,0.00,0.00,13,3,19,0.00
2013-6-16,74.3,60.7,48.4,48.6,38.7,28.4,84,48,20,0.00,0.00,14,3,23,0.02
2013-6-17,76.0,60.6,44.0,49.3,45.2,36.9,98,62,25,0.00,0.00,17,3,23,0.00
2013-6-18,55.6,51.4,46.6,50.7,47.8,46.5,100,88,73,0.00,0.00,12,4,18,0.25
2013-6-19,51.5,46.2,41.8,46.7,43.4,40.7,100,90,70,0.00,0.00,15,6,22,0.03
2013-6-20,57.5,48.9,39.1,43.4,38.9,33.1,98,71,41,0.00,0.00,14,6,21,0.00
2013-6-21,51.7,45.7,40.3,46.3,43.9,40.3,100,94,79,0.00,0.00,12,4,17,0.20
2013-6-22,65.0,52.6,39.6,48.8,43.9,39.6,100,76,45,0.00,0.00,9,1,13,0.00
2013-6-23,69.4,57.3,48.4,56.0,49.7,46.5,100,79,46,0.00,0.00,12,3,18,0.24
2013-6-24,55.6,52.6,49.1,53.4,51.8,49.0,100,97,87,0.00,0.00,12,2,15,0.44
2013-6-25,60.3,55.6,51.6,55.3,51.5,48.2,100,87,67,0.00,0.00,17,8,28,0.22
2013-6-26,68.3,58.4,51.1,61.1,55.1,51.1,100,90,60,0.00,0.00,14,4,21,0.07
2013-6-27,80.5,64.1,48.9,60.9,54.3,48.9,100,75,36,0.00,0.00,14,3,20,0.01
2013-6-28,84.6,69.1,53.1,62.9,56.2,49.1,100,69,32,0.00,0.00,10,3,18,0.00
2013-6-29,81.4,70.1,58.7,61.6,57.6,53.5,94,67,42,0.00,0.00,12,3,21,0.00
2013-6-30,90.9,73.6,54.7,61.2,57.1,48.8,99,62,24,0.00,0.00,9,3,18,0.00
2013-7-1,95.4,78.2,61.4,62.6,58.8,51.7,90,57,23,0.00,0.00,15,3,21,0.00
2013-7-2,91.0,76.8,61.6,63.4,54.6,39.8,88,52,18,0.00,0.00,13,2,19,0.00
2013-7-3,86.6,72.5,60.0,56.1,47.9,40.8,75,45,22,0.00,0.00,14,4,22,0.00
2013-7-4,77.7,65.7,50.9,44.1,37.4,31.9,62,37,22,0.00,0.00,14,5,21,0.00
2013-7-5,74.5,60.8,44.4,42.7,37.6,21.5,82,47,15,0.00,0.00,14,5,22,0.00
2013-7-6,78.8,57.8,38.0,47.2,40.1,25.1,92,58,14,0.00,0.00,12,3,17,0.00
2013-7-7,81.9,66.7,49.9,50.1,44.1,36.3,85,50,20,0.00,0.00,14,3,21,0.00
2013-7-8,80.4,65.1,50.7,46.6,38.7,26.6,68,43,14,0.00,0.00,15,4,25,0.00
2013-7-9,84.2,68.0,48.3,44.2,39.5,30.5,78,41,15,0.00,0.00,15,3,20,0.00
2013-7-10,82.5,68.6,52.8,48.6,41.1,36.5,71,40,20,0.00,0.00,15,3,22,0.00
2013-7-11,74.0,61.0,49.1,39.8,33.3,23.5,62,38,22,0.00,0.00,15,4,24,0.00
2013-7-12,74.5,57.8,35.1,32.0,27.2,19.0,55,33,16,0.00,0.00,16,4,25,0.00
2013-7-13,75.4,59.5,39.4,42.3,31.3,20.3,76,39,13,0.00,0.00,12,3,17,0.00
2013-7-14,84.3,68.6,48.6,51.5,42.0,34.3,90,44,17,0.00,0.00,14,4,32,0.04
2013-7-15,84.4,67.7,50.4,43.7,39.0,33.8,65,38,18,0.00,0.00,12,4,20,0.00
2013-7-16,85.9,68.8,51.7,48.8,43.5,39.9,75,43,23,0.00,0.00,14,4,20,0.00
2013-7-18,89.0,79.7,62.0,39.3,35.2,31.2,42,22,13,0.00,0.00,15,5,23,0.00
2013-7-19,90.2,72.3,53.7,43.4,37.6,32.5,54,32,13,0.00,0.00,13,3,18,0.00
2013-7-20,89.7,72.2,52.8,41.1,33.0,20.9,55,28,9,0.00,0.00,14,3,25,0.00
2013-7-22,87.3,78.7,60.3,36.9,28.8,22.2,37,18,10,0.00,0.00,13,4,21,0.00
2013-7-23,91.2,71.8,53.6,41.7,34.4,20.5,51,30,8,0.00,0.00,12,2,18,0.00
2013-7-24,90.3,73.4,57.4,41.8,32.3,22.7,47,26,9,0.00,0.00,15,2,23,0.00
2013-7-25,91.2,75.3,58.9,41.2,29.4,14.1,45,22,6,0.00,0.00,16,4,25,0.00
2013-7-26,91.7,75.8,58.0,38.5,27.7,15.6,35,19,9,0.00,0.00,15,3,23,0.00
2013-7-27,82.5,69.2,53.6,40.2,31.5,17.9,50,28,10,0.00,0.00,14,4,23,0.00
2013-7-28,78.7,63.9,44.3,37.5,31.0,22.6,58,33,13,0.00,0.00,15,4,23,0.00
2013-7-29,82.0,64.6,45.1,39.8,33.9,27.4,63,35,14,0.00,0.00,17,2,22,0.00
2013-7-30,83.4,69.4,50.8,40.9,34.9,26.8,58,32,13,0.00,0.00,12,2,17,0.00
2013-7-31,81.6,65.6,52.1,47.7,41.4,33.5,73,44,18,0.00,0.00,20,4,29,0.00
2013-8-1,68.7,61.3,51.3,51.0,46.4,42.1,80,59,39,0.00,0.00,17,5,28,0.00
2013-8-2,72.8,58.9,45.9,50.8,46.8,37.6,98,68,28,0.00,0.00,15,3,25,0.00
2013-8-3,77.6,62.6,44.8,50.8,44.9,33.1,98,60,20,0.00,0.00,12,3,18,0.00
2013-8-4,85.0,68.2,49.0,49.9,44.5,34.4,90,50,17,0.00,0.00,15,3,23,0.00
2013-8-5,84.8,71.0,57.2,47.0,44.0,37.6,63,41,19,0.00,0.00,13,3,24,0.00
2013-8-6,86.6,71.2,53.5,48.9,42.5,30.0,73,41,14,0.00,0.00,17,3,24,0.00
2013-8-7,85.2,70.6,54.0,44.8,33.3,18.6,58,30,9,0.00,0.00,12,2,17,0.00
2013-8-8,82.8,69.4,56.3,53.6,42.2,38.8,69,39,23,0.00,0.00,26,3,35,0.00
2013-8-9,82.2,69.0,58.2,56.7,50.9,43.9,83,55,28,0.00,0.00,20,5,30,0.11
2013-8-10,80.5,62.7,49.3,61.5,52.7,46.6,96,74,32,0.00,0.00,14,3,27,0.24
2013-8-11,78.6,63.9,49.1,56.3,51.2,46.4,100,68,33,0.00,0.00,12,4,17,0.00
2013-8-12,81.9,65.9,49.3,51.7,47.8,42.4,94,58,26,0.00,0.00,13,3,22,0.00
2013-8-13,84.5,68.2,49.5,51.4,45.6,39.9,90,50,22,0.00,0.00,14,3,22,0.00
2013-8-14,87.5,70.0,53.3,48.5,44.0,38.3,71,43,18,0.00,0.00,15,3,22,0.00
2013-8-15,89.6,68.6,51.6,52.5,46.4,31.8,82,51,13,0.00,0.00,15,3,22,0.00
2013-8-16,84.4,68.4,54.6,56.3,51.6,46.5,93,60,27,0.00,0.00,16,3,24,0.00
2013-8-17,81.0,67.3,54.4,57.8,53.7,49.9,91,64,34,0.00,0.00,13,3,20,0.03
2013-8-18,82.8,66.7,50.5,52.0,46.5,37.0,92,55,20,0.00,0.00,13,3,21,0.00
2013-8-19,83.8,67.5,52.0,50.2,44.8,25.4,82,50,18,0.00,0.00,13,4,22,0.00
2013-8-20,80.4,65.2,49.1,47.0,38.7,18.6,85,45,11,0.00,0.00,13,3,16,0.00
2013-8-21,81.7,65.2,47.4,38.9,34.4,26.8,66,36,14,0.00,0.00,9,2,14,0.00
2013-8-22,77.7,64.7,54.9,60.4,44.5,34.8,92,52,26,0.00,0.00,22,4,30,0.05
2013-8-23,77.9,64.6,50.3,53.8,48.8,43.2,99,62,30,0.00,0.00,15,4,23,0.00
2013-8-24,79.9,61.8,45.5,51.6,46.4,41.5,91,61,29,0.00,0.00,13,3,23,0.00
2013-8-25,80.1,60.8,47.8,53.2,48.0,37.1,95,68,22,0.00,0.00,25,4,41,0.01
2013-8-26,79.1,62.6,48.2,52.0,45.3,38.2,90,58,24,0.00,0.00,22,5,31,0.00
2013-8-27,83.7,64.8,48.1,53.1,45.4,30.1,100,60,15,0.00,0.00,15,3,25,0.00
2013-8-28,85.5,68.3,51.7,47.4,40.0,28.7,81,43,13,0.00,0.00,15,4,23,0.00
2013-8-29,83.5,68.8,54.5,54.4,42.8,30.3,84,45,16,0.00,0.00,16,5,28,0.00
2013-8-30,79.0,64.9,50.8,54.8,51.1,46.1,97,66,32,0.00,0.00,10,3,17,0.00
2013-8-31,89.3,68.2,49.5,54.8,48.2,39.1,98,58,18,0.00,0.00,14,3,18,0.00
2013-9-1,85.1,70.0,53.2,48.0,43.4,30.1,72,43,14,0.00,0.00,23,8,31,0.00
2013-9-2,78.4,71.8,64.6,62.9,54.6,47.3,93,57,35,0.00,0.00,28,11,40,0.05
2013-9-3,82.8,70.4,57.8,62.9,55.2,49.1,99,61,32,0.00,0.00,31,9,42,0.02
2013-9-4,84.6,66.9,54.5,61.4,55.2,46.9,100,72,28,0.00,0.00,22,6,41,0.26
2013-9-5,79.6,62.1,49.6,61.1,55.3,40.8,100,82,29,0.00,0.00,20,4,36,0.07
2013-9-6,63.5,55.6,46.9,52.0,48.3,46.2,100,78,54,0.00,0.00,15,5,22,0.00
2013-9-7,74.0,58.6,43.2,52.6,48.8,43.2,100,75,38,0.00,0.00,14,3,21,0.00
2013-9-8,72.2,58.6,45.9,54.1,49.3,45.7,100,75,42,0.00,0.00,14,3,20,0.00
2013-9-9,78.2,62.2,47.5,51.6,47.7,44.1,95,64,31,0.00,0.00,10,3,15,0.00
2013-9-10,82.5,65.7,48.3,50.0,46.6,37.1,91,56,20,0.00,0.00,9,3,16,0.00
2013-9-11,86.0,67.9,51.1,49.8,45.4,36.8,83,51,19,0.00,0.00,10,3,16,0.00
2013-9-12,85.0,69.5,54.0,50.9,47.2,39.8,78,49,22,0.00,0.00,14,2,18,0.00
2013-9-13,82.7,69.4,55.7,50.0,46.8,44.1,76,47,26,0.00,0.00,15,3,21,0.00
2013-9-14,85.2,67.9,52.7,50.7,47.8,44.7,81,52,25,0.00,0.00,20,2,27,0.00
2013-9-15,85.1,70.7,53.9,55.8,50.2,43.5,85,52,24,0.00,0.00,22,8,32,0.00
2013-9-16,69.7,57.7,46.1,50.9,47.8,45.0,98,73,43,0.00,0.00,15,4,21,0.00
2013-9-17,55.0,49.5,45.5,50.6,47.5,44.6,100,93,74,0.00,0.00,15,3,27,0.34
2013-9-18,59.1,49.5,41.0,45.0,41.1,34.8,91,75,40,0.00,0.00,13,6,20,0.00
2013-9-19,72.1,55.9,38.1,43.8,36.1,29.4,94,55,21,0.00,0.00,16,6,25,0.00
2013-9-20,79.6,63.8,48.8,47.4,32.6,21.6,76,35,12,0.00,0.00,23,7,37,0.00
2013-9-21,59.3,54.5,49.8,49.3,45.7,41.7,96,74,53,0.00,0.00,13,4,17,0.02
2013-9-22,61.2,51.5,41.6,49.6,44.9,38.7,100,80,46,0.00,0.00,21,6,28,0.18
2013-9-23,60.9,51.5,42.6,47.8,43.5,38.8,99,77,46,0.00,0.00,13,3,20,0.00
2013-9-24,52.2,45.6,39.2,48.8,44.7,39.1,100,97,84,0.00,0.00,18,2,30,0.23
2013-9-25,46.0,41.1,38.2,44.5,40.6,38.2,100,98,90,0.00,0.00,14,3,21,0.60
2013-9-26,43.4,41.1,37.0,42.8,40.8,37.0,100,99,96,0.00,0.00,14,6,20,0.02
2013-9-27,53.1,45.9,37.4,46.6,41.3,33.2,100,85,47,0.00,0.00,15,4,18,0.08
2013-9-28,62.4,55.6,48.7,49.3,46.0,40.0,96,72,44,0.00,0.00,28,16,43,0.06
2013-9-29,60.8,47.5,42.5,49.4,43.7,39.6,100,88,46,0.00,0.00,30,15,47,0.61
2013-9-30,55.2,47.1,39.3,50.5,38.5,33.9,100,74,50,0.00,0.00,29,11,46,0.14
2013-10-1,53.5,40.8,31.5,41.6,36.2,31.3,100,85,46,0.00,0.00,22,4,31,0.01
2013-10-2,47.2,37.7,28.2,40.0,34.8,28.2,100,90,58,0.00,0.00,12,2,16,0.02
2013-10-3,45.5,38.8,31.9,40.3,37.2,31.9,100,94,75,0.00,0.00,14,6,20,0.05
2013-10-4,55.1,40.3,28.8,40.7,35.2,28.8,100,85,50,0.00,0.00,9,1,12,0.00
2013-10-5,67.3,48.5,32.8,41.1,32.2,17.2,97,62,19,0.00,0.00,10,2,15,0.00
2013-10-6,74.6,54.4,33.8,37.6,30.2,18.9,74,46,13,0.00,0.00,15,4,21,0.00
2013-10-7,59.6,47.9,30.9,41.2,36.3,27.7,90,66,32,0.00,0.00,16,5,25,0.00
2013-10-8,45.6,39.1,32.2,40.3,36.6,32.0,100,91,68,0.00,0.00,18,3,23,0.11
2013-10-9,42.6,38.3,33.6,40.4,37.5,33.6,100,97,89,0.00,0.00,12,2,16,0.08
2013-10-10,50.1,42.2,34.0,40.9,37.7,33.4,100,85,58,0.00,0.00,12,2,16,0.00
2013-10-11,50.6,43.6,37.0,41.2,39.3,36.5,99,86,60,0.00,0.00,8,1,12,0.00
2013-10-12,42.8,39.1,33.4,40.9,38.6,33.4,100,98,91,0.00,0.00,9,1,15,0.07
2013-10-13,46.7,40.0,31.6,41.8,38.2,31.6,100,94,71,0.00,0.00,10,2,15,0.01
2013-10-14,49.2,37.4,27.7,37.7,32.7,27.7,100,85,58,0.00,0.00,10,2,16,0.00
2013-10-15,52.6,38.5,26.4,40.0,33.7,26.4,100,85,54,0.00,0.00,8,1,12,0.01
2013-10-16,56.6,43.7,34.3,37.4,33.5,30.3,97,70,37,0.00,0.00,8,2,13,0.00
2013-10-17,55.2,40.3,28.7,39.8,34.7,28.7,100,83,46,0.00,0.00,12,2,16,0.00
2013-10-18,58.4,41.0,28.6,41.3,35.4,28.6,100,83,47,0.00,0.00,7,1,9,0.00
2013-10-19,66.4,46.2,33.0,40.3,35.5,29.6,94,70,27,0.00,0.00,9,2,15,0.00
2013-10-20,62.7,47.2,35.9,41.5,37.9,34.2,94,73,41,0.00,0.00,12,2,16,0.00
2013-10-21,65.3,48.5,36.8,44.3,40.8,35.9,98,78,42,0.00,0.00,8,1,9,0.00
2013-10-22,66.0,50.3,37.4,46.8,42.6,37.4,100,78,44,0.00,0.00,7,1,9,0.00
2013-10-23,67.8,49.6,37.3,45.4,41.1,36.8,100,76,38,0.00,0.00,6,1,8,0.00
2013-10-24,67.2,49.3,36.8,44.0,39.9,35.5,96,73,36,0.00,0.00,7,1,7,0.00
2013-10-25,67.1,49.3,36.5,42.8,39.3,35.4,96,72,35,0.00,0.00,6,1,7,0.00
2013-10-26,66.3,48.3,35.7,44.8,39.7,35.2,100,75,38,0.00,0.00,9,1,12,0.00
2013-10-27,50.0,39.7,31.0,43.5,38.2,31.0,100,95,63,0.00,0.00,20,2,29,0.05
2013-10-28,39.7,32.8,23.5,39.8,32.2,23.1,100,98,89,0.00,0.00,10,2,17,0.10
2013-10-29,44.0,31.0,21.5,36.0,28.6,21.1,100,92,70,0.00,0.00,7,1,8,0.02
2013-10-30,46.8,35.3,25.4,34.9,29.6,25.4,100,82,45,0.00,0.00,12,2,18,0.00
2013-10-31,53.8,43.7,33.1,47.6,41.0,30.3,100,91,71,0.00,0.00,15,2,23,0.02
2013-11-1,56.4,44.2,33.2,42.3,38.4,33.2,100,83,47,0.00,0.00,12,2,15,0.00
2013-11-2,52.6,44.5,32.3,44.5,36.6,26.8,98,74,58,0.00,0.00,28,11,39,0.11
2013-11-3,38.4,34.6,30.6,31.5,29.2,26.4,100,81,64,0.00,0.00,16,7,23,0.00
2013-11-4,34.6,31.7,29.8,33.1,30.7,29.3,100,96,86,0.00,0.00,12,2,15,0.03
2013-11-5,44.3,40.0,33.6,42.2,38.4,32.4,100,94,87,0.00,0.00,21,4,30,0.09
2013-11-6,50.4,46.1,39.7,47.3,43.8,39.7,100,92,77,30.26,0.00,15,2,21,0.03
2013-11-7,53.5,46.5,34.9,47.3,41.1,31.7,99,82,65,30.13,29.80,28,11,38,0.09
2013-11-8,43.0,38.6,32.7,36.5,33.7,31.0,99,83,71,30.10,30.00,15,3,18,0.00
2013-11-9,54.9,43.3,31.0,39.7,35.2,30.6,100,76,44,30.06,30.00,15,2,19,0.00
2013-11-10,55.7,45.0,39.0,46.4,40.3,37.4,94,84,61,30.12,30.03,8,1,10,0.00
2013-11-11,56.2,43.0,35.1,44.4,39.0,34.3,99,87,62,30.22,30.11,8,1,11,0.00
2013-11-12,58.4,49.9,36.9,47.8,41.4,30.3,99,75,35,30.33,30.12,28,5,36,0.01
2013-11-13,49.6,41.9,32.6,44.4,38.7,31.5,100,89,59,30.40,30.20,14,2,18,0.00
2013-11-14,41.7,35.4,29.0,38.2,33.4,28.8,100,93,76,30.20,29.93,13,4,17,0.00
2013-11-15,40.9,34.6,30.2,33.9,31.6,27.9,100,89,66,29.93,29.43,17,3,23,0.00
2013-11-16,36.4,35.7,34.7,33.3,32.9,32.4,94,90,86,29.43,29.33,21,15,27,0.00
2013-11-19,48.2,46.4,43.4,43.9,42.8,41.1,98,87,79,29.74,29.68,28,14,35,0.06
2013-11-20,43.3,27.8,15.8,42.7,22.1,11.4,100,80,43,30.24,29.73,16,7,22,0.21
2013-11-21,34.2,20.5,12.4,20.4,14.7,10.0,96,80,50,30.53,30.24,7,0,8,0.00
2013-11-22,39.5,24.1,14.4,25.7,20.1,13.7,98,86,49,30.55,30.42,7,0,8,0.00
2013-11-23,41.2,26.4,17.0,28.5,22.9,16.4,99,87,59,30.44,30.20,6,0,7,0.00
2013-11-24,48.7,32.0,20.7,32.0,26.0,19.6,97,80,41,30.24,30.14,7,0,7,0.00
2013-11-25,51.7,36.1,25.5,30.7,26.2,21.9,88,69,39,30.30,30.23,9,0,11,0.00
2013-11-26,48.4,35.7,28.3,33.6,28.2,25.3,89,75,53,30.25,30.08,10,1,14,0.00
2013-11-27,47.1,35.4,28.3,33.7,30.4,26.3,95,83,56,30.07,29.95,6,0,10,0.00
2013-11-28,48.6,33.8,25.7,35.7,30.1,25.3,100,87,59,30.13,29.99,7,0,8,0.00
2013-11-29,48.0,36.0,25.8,38.6,32.1,25.1,100,87,58,30.22,30.12,5,0,7,0.00
2013-11-30,45.2,40.0,31.7,42.4,38.9,31.6,100,96,84,30.28,30.18,8,1,11,0.07
2013-12-1,55.4,48.6,40.7,45.2,41.1,37.8,99,77,56,30.17,29.82,24,12,38,0.08
2013-12-2,48.2,33.6,23.5,42.5,32.4,23.0,100,96,73,29.83,29.67,25,5,33,0.11
2013-12-3,24.5,18.0,12.4,24.5,17.9,12.2,100,99,95,30.00,29.79,15,2,18,0.00
2013-12-4,15.3,6.0,-2.8,15.3,5.3,-2.9,100,97,86,30.09,29.99,9,1,12,0.01
2013-12-5,9.6,2.7,-5.9,8.7,2.1,-6.0,100,97,91,30.08,29.95,0,0,0,0.00
2013-12-6,18.2,10.0,-0.6,16.2,9.4,-0.6,100,97,90,29.95,29.73,17,3,20,0.00
2013-12-7,12.1,-0.5,-13.8,12.0,-1.0,-14.6,100,98,92,30.13,29.75,9,0,12,0.00
2013-12-8,4.1,-5.5,-15.0,1.7,-6.4,-15.8,99,96,88,30.36,30.13,4,0,6,0.00
2013-12-9,18.6,6.4,-4.7,14.2,4.5,-5.5,100,92,78,30.36,30.24,8,0,9,0.00
2013-12-10,24.4,17.8,8.4,23.7,17.0,7.5,100,97,89,30.30,30.23,6,0,7,0.00
2013-12-11,32.6,20.6,13.7,27.8,19.4,13.7,100,95,81,30.29,30.18,11,1,14,0.00
2013-12-12,36.2,23.3,13.6,33.0,21.6,13.2,100,94,72,30.19,30.01,11,1,14,0.00
2013-12-13,40.0,32.2,25.6,37.5,31.7,25.6,100,98,90,30.36,30.09,9,1,13,0.02
2013-12-14,37.7,32.4,26.2,35.0,31.5,26.0,100,97,85,30.39,30.31,10,1,12,0.00
2013-12-15,42.4,34.5,29.3,35.5,31.9,27.9,99,90,73,30.34,30.25,10,1,10,0.00
2013-12-16,40.4,32.2,25.6,33.4,27.8,24.1,100,84,61,30.39,30.28,12,1,13,0.00
2013-12-17,43.5,33.5,26.6,33.7,28.2,23.8,92,81,66,30.28,30.01,10,1,14,0.00
2013-12-18,38.7,32.7,26.2,34.3,30.2,24.6,100,91,78,30.01,29.82,17,1,23,0.00
2013-12-19,27.4,19.7,14.3,26.7,15.5,11.0,100,84,65,30.09,29.87,12,1,16,0.00
2013-12-20,37.4,22.3,12.9,36.9,21.1,10.2,100,95,81,30.00,29.65,13,1,19,0.02
2013-12-21,37.9,36.1,34.7,37.3,36.0,34.7,100,100,98,30.06,29.71,8,0,12,0.35
2013-12-22,41.8,37.3,33.5,40.9,37.0,33.3,100,99,93,30.27,30.05,9,0,9,0.05
2013-12-23,48.7,39.0,29.8,41.6,36.3,29.1,100,91,65,30.38,30.12,20,4,28,0.01
2013-12-24,39.7,29.9,24.1,32.2,27.0,22.8,99,89,68,30.46,30.38,7,0,9,0.00
2013-12-25,40.7,30.1,21.1,31.8,25.5,19.2,94,83,56,30.42,30.31,10,1,12,0.00
2013-12-26,45.9,33.6,25.8,35.9,29.0,23.8,94,84,60,30.33,30.22,6,0,8,0.00
2013-12-27,38.6,31.8,25.2,35.5,29.5,24.2,97,91,79,30.22,30.08,9,1,13,0.00
2013-12-28,38.7,30.2,24.6,34.7,28.7,24.3,100,94,74,30.37,30.17,9,1,10,0.00
2013-12-29,36.9,28.6,21.9,32.5,27.4,21.7,100,95,82,30.35,30.21,6,0,6,0.01
2013-12-30,39.2,33.5,27.2,38.0,32.7,26.5,100,97,90,30.23,30.11,8,0,8,0.01
2013-12-31,40.2,36.2,32.9,38.5,35.4,32.8,100,97,85,30.26,30.12,8,1,9,0.01
2014-1-1,44.9,35.6,29.7,40.8,34.7,29.6,100,97,84,30.31,30.22,7,0,9,0.00
2014-1-2,50.2,37.4,28.2,38.9,34.2,28.2,100,89,59,30.23,29.88,23,2,30,0.00